BAW52 KSEA-EGLL
Flight info
| Callsign | BAW52 |
|---|---|
| Flight time | N/A |
| Altitude | 37000 |
| Route | SEA DCT ALPSE DCT 51N120W 55N117W 60N110W 64N100W 6730N09000W/N0480F390 70N080W 7050N07000W DCT NADMA/M083F390 DCT 71N060W 70N050W 68N040W 64N030W/M084F410 59N020W DCT SUNOT/N0488F410 DCT KESIX DCT APSOV DCT KELLY L10 WAL UY53 NUGRA |
| Aircraft | B772/H-SDE2E3FGHIJ5LORVWXY/LB1D1 |
Departure
| Time | 2026-05-06 22:03 |
|---|---|
| Airport | Seattle–Tacoma International Airport (KSEA) |
Arrival
| Time | N/A |
|---|---|
| Airport | London Heathrow Airport (EGLL) |
| Time | Latitude | Longitude | Altitude | Speed | Heading |
|---|---|---|---|---|---|
| 2026-05-06 21:07 | 47.43973 | -122.30189 | 383 ft | 0 kts | 175° |
| 2026-05-06 21:50 | 47.43995 | -122.30191 | 393 ft | 3 kts | 183° |
| 2026-05-06 21:50 | 47.44018 | -122.30187 | 393 ft | 3 kts | 198° |
| 2026-05-06 21:50 | 47.44038 | -122.30173 | 394 ft | 3 kts | 221° |
| 2026-05-06 21:51 | 47.44050 | -122.30152 | 390 ft | 3 kts | 258° |
| 2026-05-06 21:51 | 47.44051 | -122.30137 | 390 ft | 1 kts | 276° |
| 2026-05-06 21:54 | 47.44051 | -122.30175 | 393 ft | 7 kts | 265° |
| 2026-05-06 21:55 | 47.44031 | -122.30243 | 393 ft | 7 kts | 239° |
| 2026-05-06 21:55 | 47.44006 | -122.30308 | 391 ft | 7 kts | 245° |
| 2026-05-06 21:55 | 47.43993 | -122.30387 | 390 ft | 10 kts | 263° |
| 2026-05-06 21:55 | 47.43992 | -122.30486 | 389 ft | 10 kts | 270° |
| 2026-05-06 21:56 | 47.43994 | -122.30584 | 388 ft | 10 kts | 284° |
| 2026-05-06 21:56 | 47.44047 | -122.30635 | 389 ft | 10 kts | 351° |
| 2026-05-06 21:56 | 47.44121 | -122.30636 | 391 ft | 13 kts | 1° |
| 2026-05-06 21:56 | 47.44242 | -122.30634 | 390 ft | 21 kts | 0° |
| 2026-05-06 21:57 | 47.44402 | -122.30633 | 398 ft | 25 kts | 0° |
| 2026-05-06 21:57 | 47.44576 | -122.30631 | 402 ft | 25 kts | 0° |
| 2026-05-06 21:57 | 47.44749 | -122.30630 | 408 ft | 25 kts | 0° |
| 2026-05-06 21:57 | 47.44922 | -122.30628 | 411 ft | 25 kts | 0° |
| 2026-05-06 21:58 | 47.45095 | -122.30626 | 412 ft | 25 kts | 360° |
| 2026-05-06 21:58 | 47.45268 | -122.30626 | 418 ft | 25 kts | 0° |
| 2026-05-06 21:58 | 47.45441 | -122.30622 | 427 ft | 25 kts | 1° |
| 2026-05-06 21:58 | 47.45615 | -122.30622 | 432 ft | 25 kts | 0° |
| 2026-05-06 21:59 | 47.45788 | -122.30620 | 435 ft | 25 kts | 0° |
| 2026-05-06 21:59 | 47.45959 | -122.30618 | 434 ft | 25 kts | 0° |
| 2026-05-06 21:59 | 47.46134 | -122.30617 | 436 ft | 25 kts | 0° |
| 2026-05-06 21:59 | 47.46294 | -122.30615 | 436 ft | 16 kts | 0° |
| 2026-05-06 22:00 | 47.46351 | -122.30624 | 446 ft | 3 kts | 338° |
| 2026-05-06 22:00 | 47.46360 | -122.30630 | 447 ft | 0 kts | 329° |
| 2026-05-06 22:01 | 47.46363 | -122.30634 | 447 ft | 3 kts | 326° |
| 2026-05-06 22:01 | 47.46377 | -122.30685 | 447 ft | 6 kts | 274° |
| 2026-05-06 22:01 | 47.46365 | -122.30745 | 446 ft | 6 kts | 238° |
| 2026-05-06 22:02 | 47.46328 | -122.30775 | 432 ft | 6 kts | 192° |
| 2026-05-06 22:02 | 47.46309 | -122.30776 | 438 ft | 0 kts | 181° |
| 2026-05-06 22:02 | 47.46289 | -122.30777 | 437 ft | 12 kts | 181° |
| 2026-05-06 22:02 | 47.46010 | -122.30780 | 429 ft | 73 kts | 180° |
| 2026-05-06 22:03 | 47.45287 | -122.30787 | 419 ft | 133 kts | 180° |
| 2026-05-06 22:03 | 47.44199 | -122.30801 | 625 ft | 164 kts | 181° |
| 2026-05-06 22:03 | 47.43063 | -122.30804 | 1362 ft | 163 kts | 182° |
| 2026-05-06 22:03 | 47.41917 | -122.30800 | 2024 ft | 167 kts | 183° |
| 2026-05-06 22:04 | 47.40753 | -122.30817 | 2599 ft | 168 kts | 183° |
| 2026-05-06 22:04 | 47.39585 | -122.30840 | 3080 ft | 169 kts | 184° |
| 2026-05-06 22:04 | 47.38380 | -122.30873 | 3512 ft | 173 kts | 184° |
| 2026-05-06 22:04 | 47.37115 | -122.30933 | 3772 ft | 191 kts | 185° |
| 2026-05-06 22:05 | 47.35719 | -122.30998 | 3954 ft | 212 kts | 184° |
| 2026-05-06 22:05 | 47.34172 | -122.31080 | 4108 ft | 230 kts | 188° |
| 2026-05-06 22:05 | 47.32662 | -122.31871 | 4276 ft | 242 kts | 221° |
| 2026-05-06 22:05 | 47.31729 | -122.33912 | 4847 ft | 244 kts | 254° |
| 2026-05-06 22:06 | 47.31430 | -122.36384 | 5359 ft | 247 kts | 261° |
| 2026-05-06 22:06 | 47.31169 | -122.38910 | 6006 ft | 252 kts | 262° |
| 2026-05-06 22:06 | 47.30895 | -122.41491 | 6597 ft | 257 kts | 262° |
| 2026-05-06 22:06 | 47.30918 | -122.44122 | 7078 ft | 261 kts | 285° |
| 2026-05-06 22:07 | 47.31657 | -122.46573 | 7680 ft | 263 kts | 297° |
| 2026-05-06 22:07 | 47.32534 | -122.48954 | 8321 ft | 266 kts | 297° |
| 2026-05-06 22:07 | 47.33432 | -122.51342 | 8982 ft | 265 kts | 302° |
| 2026-05-06 22:07 | 47.34712 | -122.53356 | 9449 ft | 274 kts | 317° |
| 2026-05-06 22:08 | 47.36174 | -122.55183 | 10094 ft | 276 kts | 317° |
| 2026-05-06 22:08 | 47.37647 | -122.57030 | 10627 ft | 284 kts | 317° |
| 2026-05-06 22:08 | 47.39202 | -122.58999 | 10777 ft | 306 kts | 317° |
| 2026-05-06 22:08 | 47.40869 | -122.61121 | 10943 ft | 328 kts | 317° |
| 2026-05-06 22:09 | 47.42627 | -122.63368 | 11223 ft | 346 kts | 317° |
| 2026-05-06 22:09 | 47.44467 | -122.65725 | 11793 ft | 354 kts | 316° |
| 2026-05-06 22:09 | 47.46341 | -122.68129 | 12526 ft | 359 kts | 316° |
| 2026-05-06 22:09 | 47.48237 | -122.70568 | 13350 ft | 361 kts | 316° |
| 2026-05-06 22:10 | 47.50141 | -122.73023 | 14158 ft | 364 kts | 316° |
| 2026-05-06 22:10 | 47.52056 | -122.75496 | 14884 ft | 368 kts | 316° |
| 2026-05-06 22:10 | 47.53981 | -122.77984 | 15634 ft | 371 kts | 316° |
| 2026-05-06 22:10 | 47.55932 | -122.80510 | 16370 ft | 375 kts | 316° |
| 2026-05-06 22:11 | 47.57909 | -122.83072 | 17074 ft | 379 kts | 316° |
| 2026-05-06 22:11 | 47.60055 | -122.85351 | 17625 ft | 387 kts | 331° |
| 2026-05-06 22:11 | 47.62680 | -122.86482 | 18259 ft | 402 kts | 350° |
| 2026-05-06 22:11 | 47.65469 | -122.86337 | 18960 ft | 413 kts | 7° |
| 2026-05-06 22:12 | 47.68216 | -122.84925 | 19645 ft | 425 kts | 24° |
| 2026-05-06 22:12 | 47.70600 | -122.82251 | 20260 ft | 435 kts | 40° |
| 2026-05-06 22:12 | 47.72711 | -122.78957 | 20704 ft | 444 kts | 43° |
| 2026-05-06 22:12 | 47.74804 | -122.75539 | 21286 ft | 449 kts | 44° |
| 2026-05-06 22:13 | 47.76198 | -122.73241 | 21728 ft | 451 kts | 44° |
| 2026-05-06 22:13 | 47.78307 | -122.69783 | 22383 ft | 453 kts | 43° |
| 2026-05-06 22:13 | 47.80448 | -122.66311 | 23006 ft | 457 kts | 43° |
| 2026-05-06 22:13 | 47.82621 | -122.62828 | 23576 ft | 461 kts | 42° |
| 2026-05-06 22:14 | 47.84824 | -122.59321 | 24098 ft | 464 kts | 42° |
| 2026-05-06 22:14 | 47.87045 | -122.55796 | 24601 ft | 466 kts | 42° |
| 2026-05-06 22:14 | 47.89268 | -122.52270 | 25106 ft | 468 kts | 42° |
| 2026-05-06 22:14 | 47.91466 | -122.48777 | 25603 ft | 470 kts | 41° |
| 2026-05-06 22:15 | 47.93736 | -122.45165 | 26082 ft | 472 kts | 41° |
| 2026-05-06 22:15 | 47.95992 | -122.41568 | 26513 ft | 474 kts | 41° |